sensor_id;sensor_type;location;lat;lon;timestamp;pressure;altitude;pressure_sealevel;temperature;humidity
63281;BME280;49406;51.044;3.766;2023-10-08T00:01:49;102470.66;;;14.69;100.00
63281;BME280;49406;51.044;3.766;2023-10-08T00:04:24;102469.35;;;14.76;100.00
63281;BME280;49406;51.044;3.766;2023-10-08T00:06:59;102460.68;;;14.73;100.00
63281;BME280;49406;51.044;3.766;2023-10-08T00:09:33;102469.66;;;14.73;100.00
63281;BME280;49406;51.044;3.766;2023-10-08T00:12:10;102470.95;;;14.65;100.00
63281;BME280;49406;51.044;3.766;2023-10-08T00:14:46;102474.59;;;14.62;100.00
63281;BME280;49406;51.044;3.766;2023-10-08T00:17:24;102480.83;;;14.58;100.00
63281;BME280;49406;51.044;3.766;2023-10-08T00:19:59;102487.11;;;14.54;100.00
63281;BME280;49406;51.044;3.766;2023-10-08T00:22:34;102489.88;;;14.51;100.00
63281;BME280;49406;51.044;3.766;2023-10-08T00:25:10;102491.17;;;14.45;100.00
63281;BME280;49406;51.044;3.766;2023-10-08T00:27:45;102497.05;;;14.41;100.00
63281;BME280;49406;51.044;3.766;2023-10-08T00:30:23;102493.21;;;14.34;100.00
63281;BME280;49406;51.044;3.766;2023-10-08T00:32:58;102492.88;;;14.26;100.00
63281;BME280;49406;51.044;3.766;2023-10-08T00:35:33;102500.98;;;14.26;100.00
63281;BME280;49406;51.044;3.766;2023-10-08T00:38:11;102510.39;;;14.30;100.00
63281;BME280;49406;51.044;3.766;2023-10-08T00:40:49;102516.90;;;14.30;100.00
63281;BME280;49406;51.044;3.766;2023-10-08T00:43:31;102514.15;;;14.34;100.00
63281;BME280;49406;51.044;3.766;2023-10-08T00:46:08;102510.86;;;14.36;100.00
63281;BME280;49406;51.044;3.766;2023-10-08T00:48:53;102513.83;;;14.35;100.00
63281;BME280;49406;51.044;3.766;2023-10-08T00:51:28;102511.80;;;14.30;100.00
63281;BME280;49406;51.044;3.766;2023-10-08T00:54:14;102514.13;;;14.24;100.00
63281;BME280;49406;51.044;3.766;2023-10-08T00:56:50;102520.83;;;14.25;100.00
63281;BME280;49406;51.044;3.766;2023-10-08T00:59:32;102519.08;;;14.26;100.00
63281;BME280;49406;51.044;3.766;2023-10-08T01:02:15;102513.27;;;14.25;100.00
63281;BME280;49406;51.044;3.766;2023-10-08T01:04:54;102508.41;;;14.19;100.00
63281;BME280;49406;51.044;3.766;2023-10-08T01:07:29;102501.08;;;14.12;100.00
63281;BME280;49406;51.044;3.766;2023-10-08T01:10:05;102502.15;;;14.05;100.00
63281;BME280;49406;51.044;3.766;2023-10-08T01:12:43;102500.97;;;13.99;100.00
63281;BME280;49406;51.044;3.766;2023-10-08T01:15:28;102497.50;;;13.93;100.00
63281;BME280;49406;51.044;3.766;2023-10-08T01:18:04;102493.71;;;13.96;100.00
63281;BME280;49406;51.044;3.766;2023-10-08T01:20:47;102494.45;;;13.90;100.00
63281;BME280;49406;51.044;3.766;2023-10-08T01:23:25;102495.23;;;13.85;100.00
63281;BME280;49406;51.044;3.766;2023-10-08T01:26:02;102499.45;;;13.85;100.00
63281;BME280;49406;51.044;3.766;2023-10-08T01:28:44;102497.53;;;13.87;100.00
63281;BME280;49406;51.044;3.766;2023-10-08T01:31:18;102497.21;;;13.88;100.00
63281;BME280;49406;51.044;3.766;2023-10-08T01:33:53;102494.70;;;13.85;100.00
63281;BME280;49406;51.044;3.766;2023-10-08T01:36:30;102490.01;;;13.79;100.00
63281;BME280;49406;51.044;3.766;2023-10-08T01:39:05;102485.50;;;13.74;100.00
63281;BME280;49406;51.044;3.766;2023-10-08T01:41:40;102482.65;;;13.73;100.00
63281;BME280;49406;51.044;3.766;2023-10-08T01:44:14;102474.84;;;13.69;100.00
63281;BME280;49406;51.044;3.766;2023-10-08T01:46:49;102476.04;;;13.67;100.00
63281;BME280;49406;51.044;3.766;2023-10-08T01:49:25;102471.07;;;13.65;100.00
63281;BME280;49406;51.044;3.766;2023-10-08T01:52:05;102464.48;;;13.61;100.00
63281;BME280;49406;51.044;3.766;2023-10-08T01:54:46;102475.54;;;13.68;100.00
63281;BME280;49406;51.044;3.766;2023-10-08T01:57:21;102469.34;;;13.75;100.00
63281;BME280;49406;51.044;3.766;2023-10-08T01:59:56;102466.55;;;13.76;100.00
63281;BME280;49406;51.044;3.766;2023-10-08T02:02:31;102466.20;;;13.76;100.00
63281;BME280;49406;51.044;3.766;2023-10-08T02:05:07;102468.54;;;13.78;100.00
63281;BME280;49406;51.044;3.766;2023-10-08T02:07:43;102465.73;;;13.78;100.00
63281;BME280;49406;51.044;3.766;2023-10-08T02:10:18;102465.79;;;13.80;100.00
63281;BME280;49406;51.044;3.766;2023-10-08T02:12:52;102462.39;;;13.78;100.00
63281;BME280;49406;51.044;3.766;2023-10-08T02:15:27;102461.63;;;13.76;100.00
63281;BME280;49406;51.044;3.766;2023-10-08T02:18:03;102466.51;;;13.75;100.00
63281;BME280;49406;51.044;3.766;2023-10-08T02:20:38;102467.38;;;13.74;100.00
63281;BME280;49406;51.044;3.766;2023-10-08T02:23:13;102471.25;;;13.75;100.00
63281;BME280;49406;51.044;3.766;2023-10-08T02:25:47;102462.96;;;13.81;100.00
63281;BME280;49406;51.044;3.766;2023-10-08T02:28:22;102457.45;;;13.86;100.00
63281;BME280;49406;51.044;3.766;2023-10-08T02:30:57;102458.39;;;13.90;100.00
63281;BME280;49406;51.044;3.766;2023-10-08T02:33:32;102464.22;;;13.91;100.00
63281;BME280;49406;51.044;3.766;2023-10-08T02:36:07;102462.75;;;13.95;100.00
63281;BME280;49406;51.044;3.766;2023-10-08T02:38:43;102465.39;;;13.95;100.00
63281;BME280;49406;51.044;3.766;2023-10-08T02:41:18;102479.69;;;13.98;100.00
63281;BME280;49406;51.044;3.766;2023-10-08T02:43:53;102481.23;;;14.07;100.00
63281;BME280;49406;51.044;3.766;2023-10-08T02:46:32;102488.21;;;14.21;100.00
63281;BME280;49406;51.044;3.766;2023-10-08T02:49:07;102482.27;;;14.31;100.00
63281;BME280;49406;51.044;3.766;2023-10-08T02:51:44;102488.64;;;14.34;100.00
63281;BME280;49406;51.044;3.766;2023-10-08T02:54:19;102493.30;;;14.39;100.00
63281;BME280;49406;51.044;3.766;2023-10-08T02:56:56;102491.97;;;14.43;100.00
63281;BME280;49406;51.044;3.766;2023-10-08T02:59:32;102495.05;;;14.38;100.00
63281;BME280;49406;51.044;3.766;2023-10-08T03:02:13;102490.42;;;14.35;100.00
63281;BME280;49406;51.044;3.766;2023-10-08T03:04:52;102483.66;;;14.31;100.00
63281;BME280;49406;51.044;3.766;2023-10-08T03:07:27;102477.90;;;14.24;100.00
63281;BME280;49406;51.044;3.766;2023-10-08T03:10:07;102485.09;;;14.32;100.00
63281;BME280;49406;51.044;3.766;2023-10-08T03:12:51;102489.23;;;14.37;100.00
63281;BME280;49406;51.044;3.766;2023-10-08T03:15:25;102484.11;;;14.36;100.00
63281;BME280;49406;51.044;3.766;2023-10-08T03:18:02;102487.60;;;14.35;100.00
63281;BME280;49406;51.044;3.766;2023-10-08T03:20:43;102495.64;;;14.32;100.00
63281;BME280;49406;51.044;3.766;2023-10-08T03:23:20;102486.05;;;14.28;100.00
63281;BME280;49406;51.044;3.766;2023-10-08T03:25:57;102492.32;;;14.25;100.00
63281;BME280;49406;51.044;3.766;2023-10-08T03:28:34;102488.20;;;14.21;100.00
63281;BME280;49406;51.044;3.766;2023-10-08T03:31:09;102482.40;;;14.21;100.00
63281;BME280;49406;51.044;3.766;2023-10-08T03:33:49;102482.80;;;14.23;100.00
63281;BME280;49406;51.044;3.766;2023-10-08T03:36:25;102491.21;;;14.21;100.00
63281;BME280;49406;51.044;3.766;2023-10-08T03:39:07;102487.29;;;14.18;100.00
63281;BME280;49406;51.044;3.766;2023-10-08T03:41:46;102494.95;;;14.14;100.00
63281;BME280;49406;51.044;3.766;2023-10-08T03:44:33;102499.30;;;14.11;100.00
63281;BME280;49406;51.044;3.766;2023-10-08T03:47:10;102498.84;;;14.07;100.00
63281;BME280;49406;51.044;3.766;2023-10-08T03:49:45;102492.67;;;13.98;100.00
63281;BME280;49406;51.044;3.766;2023-10-08T03:52:19;102501.73;;;13.93;100.00
63281;BME280;49406;51.044;3.766;2023-10-08T03:54:56;102508.27;;;13.87;100.00
63281;BME280;49406;51.044;3.766;2023-10-08T03:57:38;102501.92;;;13.86;100.00
63281;BME280;49406;51.044;3.766;2023-10-08T04:00:14;102503.05;;;13.89;100.00
63281;BME280;49406;51.044;3.766;2023-10-08T04:02:51;102508.27;;;13.87;100.00
63281;BME280;49406;51.044;3.766;2023-10-08T04:05:33;102506.77;;;13.82;100.00
63281;BME280;49406;51.044;3.766;2023-10-08T04:08:17;102511.64;;;13.79;100.00
63281;BME280;49406;51.044;3.766;2023-10-08T04:10:57;102509.77;;;13.75;100.00
63281;BME280;49406;51.044;3.766;2023-10-08T04:13:56;102510.53;;;13.69;100.00
63281;BME280;49406;51.044;3.766;2023-10-08T04:16:33;102517.42;;;13.63;100.00
63281;BME280;49406;51.044;3.766;2023-10-08T04:19:11;102510.40;;;13.56;100.00
63281;BME280;49406;51.044;3.766;2023-10-08T04:21:46;102511.92;;;13.52;100.00
63281;BME280;49406;51.044;3.766;2023-10-08T04:24:28;102510.82;;;13.50;100.00
63281;BME280;49406;51.044;3.766;2023-10-08T04:27:07;102513.48;;;13.52;100.00
63281;BME280;49406;51.044;3.766;2023-10-08T04:29:42;102512.56;;;13.50;100.00
63281;BME280;49406;51.044;3.766;2023-10-08T04:32:23;102514.07;;;13.46;100.00
63281;BME280;49406;51.044;3.766;2023-10-08T04:34:58;102516.88;;;13.46;100.00
63281;BME280;49406;51.044;3.766;2023-10-08T04:37:34;102520.19;;;13.45;100.00
63281;BME280;49406;51.044;3.766;2023-10-08T04:40:09;102510.77;;;13.41;100.00
63281;BME280;49406;51.044;3.766;2023-10-08T04:42:49;102504.64;;;13.35;100.00
63281;BME280;49406;51.044;3.766;2023-10-08T04:45:27;102510.59;;;13.33;100.00
63281;BME280;49406;51.044;3.766;2023-10-08T04:48:07;102512.84;;;13.31;100.00
63281;BME280;49406;51.044;3.766;2023-10-08T04:50:44;102511.96;;;13.31;100.00
63281;BME280;49406;51.044;3.766;2023-10-08T04:53:18;102514.36;;;13.37;100.00
63281;BME280;49406;51.044;3.766;2023-10-08T04:56:02;102514.01;;;13.36;100.00
63281;BME280;49406;51.044;3.766;2023-10-08T04:58:38;102512.80;;;13.38;100.00
63281;BME280;49406;51.044;3.766;2023-10-08T05:01:14;102515.42;;;13.37;100.00
63281;BME280;49406;51.044;3.766;2023-10-08T05:03:55;102516.33;;;13.39;100.00
63281;BME280;49406;51.044;3.766;2023-10-08T05:06:56;102513.56;;;13.41;100.00
63281;BME280;49406;51.044;3.766;2023-10-08T05:10:08;102512.14;;;13.39;100.00
63281;BME280;49406;51.044;3.766;2023-10-08T05:13:05;102510.27;;;13.34;100.00
63281;BME280;49406;51.044;3.766;2023-10-08T05:15:49;102508.82;;;13.32;100.00
63281;BME280;49406;51.044;3.766;2023-10-08T05:18:36;102510.67;;;13.29;100.00
63281;BME280;49406;51.044;3.766;2023-10-08T05:21:47;102505.73;;;13.28;100.00
63281;BME280;49406;51.044;3.766;2023-10-08T05:24:35;102516.78;;;13.28;100.00
63281;BME280;49406;51.044;3.766;2023-10-08T05:27:13;102521.83;;;13.33;100.00
63281;BME280;49406;51.044;3.766;2023-10-08T05:30:29;102522.32;;;13.31;100.00
63281;BME280;49406;51.044;3.766;2023-10-08T05:33:14;102532.48;;;13.30;100.00
63281;BME280;49406;51.044;3.766;2023-10-08T05:36:21;102529.77;;;13.34;100.00
63281;BME280;49406;51.044;3.766;2023-10-08T05:39:01;102535.09;;;13.37;100.00
63281;BME280;49406;51.044;3.766;2023-10-08T05:41:53;102538.69;;;13.40;100.00
63281;BME280;49406;51.044;3.766;2023-10-08T05:44:39;102532.23;;;13.42;100.00
63281;BME280;49406;51.044;3.766;2023-10-08T05:50:43;102528.00;;;13.42;100.00
63281;BME280;49406;51.044;3.766;2023-10-08T05:53:38;102527.56;;;13.44;100.00
63281;BME280;49406;51.044;3.766;2023-10-08T05:56:17;102531.67;;;13.47;100.00
63281;BME280;49406;51.044;3.766;2023-10-08T05:59:02;102530.55;;;13.53;100.00
63281;BME280;49406;51.044;3.766;2023-10-08T06:01:51;102530.24;;;13.55;100.00
63281;BME280;49406;51.044;3.766;2023-10-08T06:04:38;102535.41;;;13.58;100.00
63281;BME280;49406;51.044;3.766;2023-10-08T06:07:44;102538.92;;;13.65;100.00
63281;BME280;49406;51.044;3.766;2023-10-08T06:10:29;102536.71;;;13.69;100.00
63281;BME280;49406;51.044;3.766;2023-10-08T06:13:17;102539.55;;;13.70;100.00
63281;BME280;49406;51.044;3.766;2023-10-08T06:16:03;102541.02;;;13.73;100.00
63281;BME280;49406;51.044;3.766;2023-10-08T06:18:41;102544.65;;;13.78;100.00
63281;BME280;49406;51.044;3.766;2023-10-08T06:21:16;102540.20;;;13.83;100.00
63281;BME280;49406;51.044;3.766;2023-10-08T06:23:52;102545.47;;;13.92;100.00
63281;BME280;49406;51.044;3.766;2023-10-08T06:26:29;102555.61;;;13.96;100.00
63281;BME280;49406;51.044;3.766;2023-10-08T06:29:07;102551.13;;;14.01;100.00
63281;BME280;49406;51.044;3.766;2023-10-08T06:31:51;102553.54;;;14.07;100.00
63281;BME280;49406;51.044;3.766;2023-10-08T06:34:28;102547.74;;;14.16;100.00
63281;BME280;49406;51.044;3.766;2023-10-08T06:37:04;102549.40;;;14.20;100.00
63281;BME280;49406;51.044;3.766;2023-10-08T06:39:39;102555.37;;;14.28;100.00
63281;BME280;49406;51.044;3.766;2023-10-08T06:42:21;102557.55;;;14.39;100.00
63281;BME280;49406;51.044;3.766;2023-10-08T06:45:00;102552.14;;;14.49;100.00
63281;BME280;49406;51.044;3.766;2023-10-08T06:47:35;102551.10;;;14.60;100.00
63281;BME280;49406;51.044;3.766;2023-10-08T06:50:10;102549.45;;;14.76;100.00
63281;BME280;49406;51.044;3.766;2023-10-08T06:52:48;102547.67;;;14.94;100.00
63281;BME280;49406;51.044;3.766;2023-10-08T06:55:22;102552.77;;;15.13;100.00
63281;BME280;49406;51.044;3.766;2023-10-08T06:58:00;102551.32;;;15.32;100.00
63281;BME280;49406;51.044;3.766;2023-10-08T07:00:36;102563.55;;;15.49;100.00
63281;BME280;49406;51.044;3.766;2023-10-08T07:03:19;102568.20;;;15.62;100.00
63281;BME280;49406;51.044;3.766;2023-10-08T07:05:53;102570.60;;;15.70;100.00
63281;BME280;49406;51.044;3.766;2023-10-08T07:08:32;102570.82;;;15.73;100.00
63281;BME280;49406;51.044;3.766;2023-10-08T07:11:06;102572.98;;;15.77;100.00
63281;BME280;49406;51.044;3.766;2023-10-08T07:13:44;102581.87;;;15.80;100.00
63281;BME280;49406;51.044;3.766;2023-10-08T07:16:19;102581.20;;;15.83;100.00
63281;BME280;49406;51.044;3.766;2023-10-08T07:18:54;102577.21;;;15.89;100.00
63281;BME280;49406;51.044;3.766;2023-10-08T07:21:34;102578.46;;;16.03;100.00
63281;BME280;49406;51.044;3.766;2023-10-08T07:24:17;102584.55;;;16.10;100.00
63281;BME280;49406;51.044;3.766;2023-10-08T07:26:54;102577.95;;;16.16;100.00
63281;BME280;49406;51.044;3.766;2023-10-08T07:29:29;102579.08;;;16.23;100.00
63281;BME280;49406;51.044;3.766;2023-10-08T07:32:05;102582.86;;;16.30;100.00
63281;BME280;49406;51.044;3.766;2023-10-08T07:34:44;102583.45;;;16.34;100.00
63281;BME280;49406;51.044;3.766;2023-10-08T07:37:19;102588.84;;;16.42;100.00
63281;BME280;49406;51.044;3.766;2023-10-08T07:39:54;102588.59;;;16.50;100.00
63281;BME280;49406;51.044;3.766;2023-10-08T07:42:29;102587.69;;;16.64;100.00
63281;BME280;49406;51.044;3.766;2023-10-08T07:45:04;102579.84;;;16.72;100.00
63281;BME280;49406;51.044;3.766;2023-10-08T07:47:39;102594.30;;;16.85;100.00
63281;BME280;49406;51.044;3.766;2023-10-08T07:50:13;102595.20;;;16.87;100.00
63281;BME280;49406;51.044;3.766;2023-10-08T07:52:49;102594.00;;;16.91;100.00
63281;BME280;49406;51.044;3.766;2023-10-08T07:55:24;102589.29;;;16.98;100.00
63281;BME280;49406;51.044;3.766;2023-10-08T07:57:58;102585.94;;;17.17;100.00
63281;BME280;49406;51.044;3.766;2023-10-08T08:00:37;102581.64;;;17.31;100.00
63281;BME280;49406;51.044;3.766;2023-10-08T08:03:14;102577.88;;;17.49;100.00
63281;BME280;49406;51.044;3.766;2023-10-08T08:05:49;102581.02;;;17.68;100.00
63281;BME280;49406;51.044;3.766;2023-10-08T08:08:26;102584.73;;;17.94;100.00
63281;BME280;49406;51.044;3.766;2023-10-08T08:11:00;102581.86;;;18.19;100.00
63281;BME280;49406;51.044;3.766;2023-10-08T08:13:41;102586.02;;;18.47;100.00
63281;BME280;49406;51.044;3.766;2023-10-08T08:16:17;102587.02;;;18.73;100.00
63281;BME280;49406;51.044;3.766;2023-10-08T08:18:53;102586.70;;;18.94;100.00
63281;BME280;49406;51.044;3.766;2023-10-08T08:21:30;102594.16;;;19.13;100.00
63281;BME280;49406;51.044;3.766;2023-10-08T08:24:05;102595.05;;;19.25;100.00
63281;BME280;49406;51.044;3.766;2023-10-08T08:26:40;102605.33;;;19.44;100.00
63281;BME280;49406;51.044;3.766;2023-10-08T08:29:34;102604.81;;;19.55;100.00
63281;BME280;49406;51.044;3.766;2023-10-08T08:32:17;102604.27;;;19.69;100.00
63281;BME280;49406;51.044;3.766;2023-10-08T08:34:54;102603.33;;;19.92;100.00
63281;BME280;49406;51.044;3.766;2023-10-08T08:37:29;102605.70;;;20.25;100.00
63281;BME280;49406;51.044;3.766;2023-10-08T08:40:05;102608.45;;;20.54;100.00
63281;BME280;49406;51.044;3.766;2023-10-08T08:42:42;102613.66;;;20.75;100.00
63281;BME280;49406;51.044;3.766;2023-10-08T08:45:20;102609.36;;;20.81;100.00
63281;BME280;49406;51.044;3.766;2023-10-08T08:47:55;102614.13;;;20.87;100.00
63281;BME280;49406;51.044;3.766;2023-10-08T08:50:30;102613.80;;;21.08;100.00
63281;BME280;49406;51.044;3.766;2023-10-08T08:53:05;102612.11;;;21.20;100.00
63281;BME280;49406;51.044;3.766;2023-10-08T08:55:40;102613.25;;;21.36;100.00
63281;BME280;49406;51.044;3.766;2023-10-08T08:58:15;102605.56;;;21.59;100.00
63281;BME280;49406;51.044;3.766;2023-10-08T09:00:52;102608.69;;;21.68;100.00
63281;BME280;49406;51.044;3.766;2023-10-08T09:03:27;102608.30;;;21.70;100.00
63281;BME280;49406;51.044;3.766;2023-10-08T09:06:04;102605.11;;;21.69;100.00
63281;BME280;49406;51.044;3.766;2023-10-08T09:08:39;102609.85;;;21.58;100.00
63281;BME280;49406;51.044;3.766;2023-10-08T09:11:19;102616.02;;;21.45;100.00
63281;BME280;49406;51.044;3.766;2023-10-08T09:13:54;102615.41;;;21.33;100.00
63281;BME280;49406;51.044;3.766;2023-10-08T09:16:28;102617.91;;;21.34;100.00
63281;BME280;49406;51.044;3.766;2023-10-08T09:19:03;102616.60;;;21.40;100.00
63281;BME280;49406;51.044;3.766;2023-10-08T09:21:45;102607.38;;;21.56;100.00
63281;BME280;49406;51.044;3.766;2023-10-08T09:24:35;102611.88;;;21.86;100.00
63281;BME280;49406;51.044;3.766;2023-10-08T09:27:12;102617.38;;;22.06;100.00
63281;BME280;49406;51.044;3.766;2023-10-08T09:29:47;102616.73;;;22.15;99.96
63281;BME280;49406;51.044;3.766;2023-10-08T09:32:22;102622.42;;;22.17;99.69
63281;BME280;49406;51.044;3.766;2023-10-08T09:34:58;102623.62;;;22.22;99.76
63281;BME280;49406;51.044;3.766;2023-10-08T09:37:33;102627.72;;;22.35;99.06
63281;BME280;49406;51.044;3.766;2023-10-08T09:40:10;102627.91;;;22.62;98.87
63281;BME280;49406;51.044;3.766;2023-10-08T09:42:46;102626.28;;;22.89;97.54
63281;BME280;49406;51.044;3.766;2023-10-08T09:45:22;102617.12;;;23.07;96.77
63281;BME280;49406;51.044;3.766;2023-10-08T09:47:57;102619.55;;;23.10;96.07
63281;BME280;49406;51.044;3.766;2023-10-08T09:50:35;102618.36;;;23.17;95.67
63281;BME280;49406;51.044;3.766;2023-10-08T09:53:13;102614.90;;;23.33;94.94
63281;BME280;49406;51.044;3.766;2023-10-08T09:55:53;102606.23;;;23.50;95.11
63281;BME280;49406;51.044;3.766;2023-10-08T09:58:29;102610.30;;;23.82;94.61
63281;BME280;49406;51.044;3.766;2023-10-08T10:01:04;102610.52;;;24.07;92.26
63281;BME280;49406;51.044;3.766;2023-10-08T10:03:40;102607.73;;;24.21;91.15
63281;BME280;49406;51.044;3.766;2023-10-08T10:06:17;102608.56;;;24.34;89.59
63281;BME280;49406;51.044;3.766;2023-10-08T10:08:53;102611.30;;;24.31;89.61
63281;BME280;49406;51.044;3.766;2023-10-08T10:11:31;102612.70;;;24.41;89.54
63281;BME280;49406;51.044;3.766;2023-10-08T10:14:06;102616.95;;;24.50;90.03
63281;BME280;49406;51.044;3.766;2023-10-08T10:16:42;102618.19;;;24.44;89.31
63281;BME280;49406;51.044;3.766;2023-10-08T10:19:20;102617.58;;;24.47;90.28
63281;BME280;49406;51.044;3.766;2023-10-08T10:21:56;102615.02;;;24.50;89.27
63281;BME280;49406;51.044;3.766;2023-10-08T10:24:35;102613.88;;;24.44;88.98
63281;BME280;49406;51.044;3.766;2023-10-08T10:27:15;102619.80;;;24.51;88.82
63281;BME280;49406;51.044;3.766;2023-10-08T10:29:50;102619.81;;;24.50;88.82
63281;BME280;49406;51.044;3.766;2023-10-08T10:32:25;102617.53;;;24.49;88.95
63281;BME280;49406;51.044;3.766;2023-10-08T10:35:00;102610.16;;;24.34;87.69
63281;BME280;49406;51.044;3.766;2023-10-08T10:37:36;102616.08;;;24.34;88.62
63281;BME280;49406;51.044;3.766;2023-10-08T10:40:19;102615.41;;;24.40;88.71
63281;BME280;49406;51.044;3.766;2023-10-08T10:43:02;102617.90;;;24.48;88.45
63281;BME280;49406;51.044;3.766;2023-10-08T10:45:40;102620.13;;;24.45;87.31
63281;BME280;49406;51.044;3.766;2023-10-08T10:48:16;102617.02;;;24.30;87.68
63281;BME280;49406;51.044;3.766;2023-10-08T10:50:59;102619.34;;;24.22;88.24
63281;BME280;49406;51.044;3.766;2023-10-08T10:53:50;102618.61;;;24.23;88.39
63281;BME280;49406;51.044;3.766;2023-10-08T10:56:37;102612.52;;;24.13;87.81
63281;BME280;49406;51.044;3.766;2023-10-08T10:59:16;102611.56;;;24.09;89.05
63281;BME280;49406;51.044;3.766;2023-10-08T11:01:51;102610.25;;;24.03;88.60
63281;BME280;49406;51.044;3.766;2023-10-08T11:04:38;102604.92;;;24.00;89.57
63281;BME280;49406;51.044;3.766;2023-10-08T11:07:22;102593.58;;;23.95;90.45
63281;BME280;49406;51.044;3.766;2023-10-08T11:09:58;102592.22;;;24.02;90.91
63281;BME280;49406;51.044;3.766;2023-10-08T11:12:34;102586.98;;;23.96;90.59
63281;BME280;49406;51.044;3.766;2023-10-08T11:15:16;102586.52;;;23.92;89.67
63281;BME280;49406;51.044;3.766;2023-10-08T11:17:51;102585.62;;;23.83;90.27
63281;BME280;49406;51.044;3.766;2023-10-08T11:20:26;102580.79;;;23.65;90.14
63281;BME280;49406;51.044;3.766;2023-10-08T11:23:01;102579.47;;;23.48;90.18
63281;BME280;49406;51.044;3.766;2023-10-08T11:25:58;102578.88;;;23.31;90.62
63281;BME280;49406;51.044;3.766;2023-10-08T11:28:36;102582.20;;;23.25;92.08
63281;BME280;49406;51.044;3.766;2023-10-08T11:31:17;102577.90;;;23.26;92.48
63281;BME280;49406;51.044;3.766;2023-10-08T11:33:58;102580.45;;;23.23;91.76
63281;BME280;49406;51.044;3.766;2023-10-08T11:36:32;102579.48;;;23.17;92.27
63281;BME280;49406;51.044;3.766;2023-10-08T11:39:21;102577.91;;;23.14;92.10
63281;BME280;49406;51.044;3.766;2023-10-08T11:42:01;102572.47;;;23.09;91.84
63281;BME280;49406;51.044;3.766;2023-10-08T11:44:49;102571.55;;;23.10;91.85
63281;BME280;49406;51.044;3.766;2023-10-08T11:47:25;102571.38;;;23.10;92.28
63281;BME280;49406;51.044;3.766;2023-10-08T11:50:10;102566.05;;;23.09;92.03
63281;BME280;49406;51.044;3.766;2023-10-08T11:52:44;102560.27;;;23.13;92.76
63281;BME280;49406;51.044;3.766;2023-10-08T11:55:19;102553.99;;;23.15;89.66
63281;BME280;49406;51.044;3.766;2023-10-08T11:57:54;102553.32;;;23.13;90.67
63281;BME280;49406;51.044;3.766;2023-10-08T12:00:30;102550.20;;;23.18;90.64
63281;BME280;49406;51.044;3.766;2023-10-08T12:03:04;102552.11;;;23.21;89.40
63281;BME280;49406;51.044;3.766;2023-10-08T12:05:39;102553.38;;;23.21;87.75
63281;BME280;49406;51.044;3.766;2023-10-08T12:08:21;102543.23;;;23.19;87.68
63281;BME280;49406;51.044;3.766;2023-10-08T12:10:55;102541.54;;;23.24;87.36
63281;BME280;49406;51.044;3.766;2023-10-08T12:13:33;102542.86;;;23.29;87.97
63281;BME280;49406;51.044;3.766;2023-10-08T12:16:08;102546.60;;;23.29;87.02
63281;BME280;49406;51.044;3.766;2023-10-08T12:18:46;102545.95;;;23.26;86.40
63281;BME280;49406;51.044;3.766;2023-10-08T12:21:26;102542.58;;;23.25;86.79
63281;BME280;49406;51.044;3.766;2023-10-08T12:24:03;102541.26;;;23.29;85.87
63281;BME280;49406;51.044;3.766;2023-10-08T12:26:38;102536.77;;;23.30;84.88
63281;BME280;49406;51.044;3.766;2023-10-08T12:29:18;102539.13;;;23.38;85.53
63281;BME280;49406;51.044;3.766;2023-10-08T12:31:55;102536.98;;;23.48;86.22
63281;BME280;49406;51.044;3.766;2023-10-08T12:34:29;102536.56;;;23.62;85.37
63281;BME280;49406;51.044;3.766;2023-10-08T12:37:08;102527.00;;;23.76;85.69
63281;BME280;49406;51.044;3.766;2023-10-08T12:39:43;102526.88;;;23.91;85.33
63281;BME280;49406;51.044;3.766;2023-10-08T12:42:33;102529.52;;;24.10;84.82
63281;BME280;49406;51.044;3.766;2023-10-08T12:45:09;102530.03;;;24.19;81.30
63281;BME280;49406;51.044;3.766;2023-10-08T12:47:45;102527.71;;;24.18;80.56
63281;BME280;49406;51.044;3.766;2023-10-08T12:50:21;102520.33;;;24.13;79.79
63281;BME280;49406;51.044;3.766;2023-10-08T12:53:02;102512.34;;;24.11;82.18
63281;BME280;49406;51.044;3.766;2023-10-08T12:55:37;102517.89;;;24.19;82.59
63281;BME280;49406;51.044;3.766;2023-10-08T12:58:13;102515.20;;;24.19;82.32
63281;BME280;49406;51.044;3.766;2023-10-08T13:00:49;102516.30;;;24.17;82.36
63281;BME280;49406;51.044;3.766;2023-10-08T13:03:30;102514.55;;;24.15;81.85
63281;BME280;49406;51.044;3.766;2023-10-08T13:06:06;102512.62;;;24.14;81.74
63281;BME280;49406;51.044;3.766;2023-10-08T13:08:44;102510.66;;;24.13;81.19
63281;BME280;49406;51.044;3.766;2023-10-08T13:11:19;102508.79;;;24.10;81.96
63281;BME280;49406;51.044;3.766;2023-10-08T13:13:54;102508.81;;;24.09;81.11
63281;BME280;49406;51.044;3.766;2023-10-08T13:16:29;102504.26;;;24.05;81.58
63281;BME280;49406;51.044;3.766;2023-10-08T13:19:04;102502.61;;;23.98;81.96
63281;BME280;49406;51.044;3.766;2023-10-08T13:21:42;102501.52;;;23.91;81.89
63281;BME280;49406;51.044;3.766;2023-10-08T13:24:17;102493.98;;;23.83;82.45
63281;BME280;49406;51.044;3.766;2023-10-08T13:26:51;102495.77;;;23.83;82.71
63281;BME280;49406;51.044;3.766;2023-10-08T13:29:26;102489.64;;;23.78;83.36
63281;BME280;49406;51.044;3.766;2023-10-08T13:32:06;102490.67;;;23.80;84.45
63281;BME280;49406;51.044;3.766;2023-10-08T13:34:43;102496.29;;;23.85;84.66
63281;BME280;49406;51.044;3.766;2023-10-08T13:37:19;102499.14;;;23.85;83.52
63281;BME280;49406;51.044;3.766;2023-10-08T13:39:53;102500.41;;;23.83;81.67
63281;BME280;49406;51.044;3.766;2023-10-08T13:42:28;102500.67;;;23.80;82.18
63281;BME280;49406;51.044;3.766;2023-10-08T13:45:03;102497.33;;;23.78;82.86